sensor_id;sensor_type;location;lat;lon;timestamp;P1;P2;P0
55076;PMS7003;40971;44.702;11.030;2024-01-15T00:04:37;96.33;78.00;46.00
55076;PMS7003;40971;44.702;11.030;2024-01-15T00:14:41;93.67;75.67;46.00
55076;PMS7003;40971;44.702;11.030;2024-01-15T00:24:44;93.33;76.00;46.00
55076;PMS7003;40971;44.702;11.030;2024-01-15T00:34:46;101.33;78.00;46.00
55076;PMS7003;40971;44.702;11.030;2024-01-15T00:44:51;94.33;75.67;47.11
55076;PMS7003;40971;44.702;11.030;2024-01-15T00:54:54;93.00;73.00;45.33
55076;PMS7003;40971;44.702;11.030;2024-01-15T01:04:57;98.00;78.00;48.67
55076;PMS7003;40971;44.702;11.030;2024-01-15T01:14:59;96.33;76.67;49.00
55076;PMS7003;40971;44.702;11.030;2024-01-15T01:25:04;95.67;75.67;45.22
55076;PMS7003;40971;44.702;11.030;2024-01-15T01:35:07;95.83;77.33;46.00
55076;PMS7003;40971;44.702;11.030;2024-01-15T01:45:12;91.56;72.78;45.56
55076;PMS7003;40971;44.702;11.030;2024-01-15T01:55:14;96.00;78.33;46.00
55076;PMS7003;40971;44.702;11.030;2024-01-15T02:05:18;95.33;77.33;48.00
55076;PMS7003;40971;44.702;11.030;2024-01-15T02:15:24;92.33;74.33;45.33
55076;PMS7003;40971;44.702;11.030;2024-01-15T02:25:28;93.38;75.25;45.88
55076;PMS7003;40971;44.702;11.030;2024-01-15T02:35:31;91.33;72.33;43.00
55076;PMS7003;40971;44.702;11.030;2024-01-15T02:45:35;92.33;73.33;43.00
55076;PMS7003;40971;44.702;11.030;2024-01-15T02:55:39;92.88;74.38;46.63
55076;PMS7003;40971;44.702;11.030;2024-01-15T03:05:42;94.00;73.67;46.00
55076;PMS7003;40971;44.702;11.030;2024-01-15T03:15:46;92.75;71.75;43.75
55076;PMS7003;40971;44.702;11.030;2024-01-15T03:25:49;90.67;72.67;45.00
55076;PMS7003;40971;44.702;11.030;2024-01-15T03:35:51;93.67;75.00;45.33
55076;PMS7003;40971;44.702;11.030;2024-01-15T03:45:54;93.67;76.00;45.33
55076;PMS7003;40971;44.702;11.030;2024-01-15T03:55:56;85.80;69.40;44.20
55076;PMS7003;40971;44.702;11.030;2024-01-15T04:05:58;96.33;75.00;45.33
55076;PMS7003;40971;44.702;11.030;2024-01-15T04:16:00;82.00;66.00;42.00
55076;PMS7003;40971;44.702;11.030;2024-01-15T04:26:03;90.33;73.00;45.00
55076;PMS7003;40971;44.702;11.030;2024-01-15T04:36:04;84.50;67.00;43.00
55076;PMS7003;40971;44.702;11.030;2024-01-15T04:46:08;88.75;71.00;46.50
55076;PMS7003;40971;44.702;11.030;2024-01-15T04:56:12;92.33;69.33;43.00
55076;PMS7003;40971;44.702;11.030;2024-01-15T05:06:14;96.00;78.00;46.00
55076;PMS7003;40971;44.702;11.030;2024-01-15T05:16:19;92.56;73.11;43.78
55076;PMS7003;40971;44.702;11.030;2024-01-15T05:26:23;94.75;76.63;47.50
55076;PMS7003;40971;44.702;11.030;2024-01-15T05:36:25;85.00;69.00;42.00
55076;PMS7003;40971;44.702;11.030;2024-01-15T05:46:27;91.67;75.33;45.67
55076;PMS7003;40971;44.702;11.030;2024-01-15T05:56:30;90.67;75.00;45.33
55076;PMS7003;40971;44.702;11.030;2024-01-15T06:06:32;91.33;75.00;44.67
55076;PMS7003;40971;44.702;11.030;2024-01-15T06:16:34;93.67;74.33;46.00
55076;PMS7003;40971;44.702;11.030;2024-01-15T06:26:39;92.88;75.00;45.88
55076;PMS7003;40971;44.702;11.030;2024-01-15T06:36:43;94.44;74.89;45.44
55076;PMS7003;40971;44.702;11.030;2024-01-15T06:46:46;90.00;72.67;43.67
55076;PMS7003;40971;44.702;11.030;2024-01-15T06:56:51;101.44;80.56;49.00
55076;PMS7003;40971;44.702;11.030;2024-01-15T07:06:56;99.00;78.11;47.11
55076;PMS7003;40971;44.702;11.030;2024-01-15T07:16:58;93.00;75.00;45.00
55076;PMS7003;40971;44.702;11.030;2024-01-15T07:27:01;93.33;76.00;46.00
55076;PMS7003;40971;44.702;11.030;2024-01-15T07:37:03;96.67;76.67;48.00
55076;PMS7003;40971;44.702;11.030;2024-01-15T07:47:06;98.33;78.00;46.00
55076;PMS7003;40971;44.702;11.030;2024-01-15T07:57:10;100.13;78.63;48.13
55076;PMS7003;40971;44.702;11.030;2024-01-15T08:07:13;99.00;79.00;46.67
55076;PMS7003;40971;44.702;11.030;2024-01-15T08:17:18;94.22;73.22;46.67
55076;PMS7003;40971;44.702;11.030;2024-01-15T08:27:23;103.22;84.56;49.44
55076;PMS7003;40971;44.702;11.030;2024-01-15T08:37:25;99.67;80.67;49.00
55076;PMS7003;40971;44.702;11.030;2024-01-15T08:47:27;104.33;82.67;51.00
55076;PMS7003;40971;44.702;11.030;2024-01-15T08:57:29;105.00;86.20;49.00
55076;PMS7003;40971;44.702;11.030;2024-01-15T09:07:31;81.20;66.80;31.40
55076;PMS7003;40971;44.702;11.030;2024-01-15T09:17:36;98.22;78.78;47.33
55076;PMS7003;40971;44.702;11.030;2024-01-15T09:27:41;95.11;76.33;47.33
55076;PMS7003;40971;44.702;11.030;2024-01-15T09:37:46;94.67;75.89;46.00
55076;PMS7003;40971;44.702;11.030;2024-01-15T09:47:48;98.33;78.33;46.67
55076;PMS7003;40971;44.702;11.030;2024-01-15T09:57:51;100.00;78.00;48.00
55076;PMS7003;40971;44.702;11.030;2024-01-15T10:07:55;93.00;75.00;48.00
55076;PMS7003;40971;44.702;11.030;2024-01-15T10:18:02;96.00;76.56;45.44
55076;PMS7003;40971;44.702;11.030;2024-01-15T10:28:05;93.00;76.00;46.00
55076;PMS7003;40971;44.702;11.030;2024-01-15T10:38:08;94.67;74.33;47.33
55076;PMS7003;40971;44.702;11.030;2024-01-15T10:48:10;90.00;69.67;43.00
55076;PMS7003;40971;44.702;11.030;2024-01-15T10:58:15;89.44;71.78;45.67
55076;PMS7003;40971;44.702;11.030;2024-01-15T11:08:19;94.33;76.33;47.67
55076;PMS7003;40971;44.702;11.030;2024-01-15T11:18:40;98.44;78.56;48.78
55076;PMS7003;40971;44.702;11.030;2024-01-15T11:28:49;93.78;76.11;46.11
55076;PMS7003;40971;44.702;11.030;2024-01-15T11:38:52;97.67;78.67;48.67
55076;PMS7003;40971;44.702;11.030;2024-01-15T11:48:54;94.67;78.33;48.67
55076;PMS7003;40971;44.702;11.030;2024-01-15T11:59:06;95.00;77.00;47.33
55076;PMS7003;40971;44.702;11.030;2024-01-15T12:09:12;96.00;77.11;49.11
55076;PMS7003;40971;44.702;11.030;2024-01-15T12:19:15;87.00;70.00;45.00
55076;PMS7003;40971;44.702;11.030;2024-01-15T12:29:19;91.00;73.00;47.63
55076;PMS7003;40971;44.702;11.030;2024-01-15T12:39:24;97.33;78.00;48.00
55076;PMS7003;40971;44.702;11.030;2024-01-15T12:49:29;93.11;75.89;48.44
55076;PMS7003;40971;44.702;11.030;2024-01-15T12:59:30;76.00;64.00;36.00
55076;PMS7003;40971;44.702;11.030;2024-01-15T13:09:33;92.00;74.00;46.00
55076;PMS7003;40971;44.702;11.030;2024-01-15T13:19:36;82.00;67.00;42.00
55076;PMS7003;40971;44.702;11.030;2024-01-15T13:29:38;99.33;78.67;48.33
55076;PMS7003;40971;44.702;11.030;2024-01-15T13:39:41;91.67;73.67;45.00
55076;PMS7003;40971;44.702;11.030;2024-01-15T13:49:43;85.67;69.67;42.33
55076;PMS7003;40971;44.702;11.030;2024-01-15T13:59:45;91.33;72.67;46.00
55076;PMS7003;40971;44.702;11.030;2024-01-15T14:09:50;92.33;74.11;47.33
55076;PMS7003;40971;44.702;11.030;2024-01-15T14:19:53;90.33;72.67;45.00
55076;PMS7003;40971;44.702;11.030;2024-01-15T14:29:55;87.00;70.67;45.00
55076;PMS7003;40971;44.702;11.030;2024-01-15T14:39:58;82.67;66.33;43.00
55076;PMS7003;40971;44.702;11.030;2024-01-15T14:50:00;91.67;72.00;45.33
55076;PMS7003;40971;44.702;11.030;2024-01-15T15:00:05;85.44;71.33;44.00
55076;PMS7003;40971;44.702;11.030;2024-01-15T15:10:10;85.00;70.00;45.00
55076;PMS7003;40971;44.702;11.030;2024-01-15T15:20:13;85.67;70.00;45.67
55076;PMS7003;40971;44.702;11.030;2024-01-15T15:30:15;90.33;72.33;46.00
55076;PMS7003;40971;44.702;11.030;2024-01-15T15:40:20;91.75;74.00;47.50
55076;PMS7003;40971;44.702;11.030;2024-01-15T15:50:25;89.00;70.78;45.22
55076;PMS7003;40971;44.702;11.030;2024-01-15T16:00:28;90.00;72.67;45.33
55076;PMS7003;40971;44.702;11.030;2024-01-15T16:10:30;87.33;69.33;43.67
55076;PMS7003;40971;44.702;11.030;2024-01-15T16:20:32;86.33;69.67;42.00
55076;PMS7003;40971;44.702;11.030;2024-01-15T16:30:37;81.00;66.11;42.44
55076;PMS7003;40971;44.702;11.030;2024-01-15T16:40:40;79.67;64.33;41.33
55076;PMS7003;40971;44.702;11.030;2024-01-15T16:50:43;80.67;64.00;42.67
55076;PMS7003;40971;44.702;11.030;2024-01-15T17:00:48;82.22;67.00;41.78
55076;PMS7003;40971;44.702;11.030;2024-01-15T17:10:53;87.89;70.56;45.22
55076;PMS7003;40971;44.702;11.030;2024-01-15T17:20:58;89.78;70.67;45.11
55076;PMS7003;40971;44.702;11.030;2024-01-15T17:31:00;85.67;69.33;43.67
55076;PMS7003;40971;44.702;11.030;2024-01-15T17:41:03;90.67;73.67;46.00
55076;PMS7003;40971;44.702;11.030;2024-01-15T17:51:05;82.67;67.67;42.00
55076;PMS7003;40971;44.702;11.030;2024-01-15T18:01:09;85.38;68.75;42.50
55076;PMS7003;40971;44.702;11.030;2024-01-15T18:11:16;89.33;71.67;44.33
55076;PMS7003;40971;44.702;11.030;2024-01-15T18:21:20;87.67;72.00;46.00
55076;PMS7003;40971;44.702;11.030;2024-01-15T18:31:24;86.00;69.67;44.33
55076;PMS7003;40971;44.702;11.030;2024-01-15T18:41:27;93.00;73.00;43.00
55076;PMS7003;40971;44.702;11.030;2024-01-15T18:51:32;88.89;71.78;45.56
55076;PMS7003;40971;44.702;11.030;2024-01-15T19:01:34;97.00;78.00;46.67
55076;PMS7003;40971;44.702;11.030;2024-01-15T19:11:39;99.13;79.50;47.63
55076;PMS7003;40971;44.702;11.030;2024-01-15T19:21:44;95.67;77.33;46.22
55076;PMS7003;40971;44.702;11.030;2024-01-15T19:31:46;92.33;75.67;47.67
55076;PMS7003;40971;44.702;11.030;2024-01-15T19:41:51;94.22;75.78;47.89
55076;PMS7003;40971;44.702;11.030;2024-01-15T19:51:55;88.00;70.67;46.67
55076;PMS7003;40971;44.702;11.030;2024-01-15T20:01:57;93.00;75.00;48.00
55076;PMS7003;40971;44.702;11.030;2024-01-15T20:12:03;94.00;75.78;47.78
55076;PMS7003;40971;44.702;11.030;2024-01-15T20:22:08;101.67;80.44;49.11
55076;PMS7003;40971;44.702;11.030;2024-01-15T20:32:10;91.67;75.00;46.00
55076;PMS7003;40971;44.702;11.030;2024-01-15T20:42:16;94.67;75.22;45.67
55076;PMS7003;40971;44.702;11.030;2024-01-15T20:52:18;102.00;79.67;49.67
55076;PMS7003;40971;44.702;11.030;2024-01-15T21:02:23;98.33;78.22;48.67
55076;PMS7003;40971;44.702;11.030;2024-01-15T21:12:24;97.33;78.67;48.00
55076;PMS7003;40971;44.702;11.030;2024-01-15T21:22:27;103.83;83.67;50.00
55076;PMS7003;40971;44.702;11.030;2024-01-15T21:32:31;103.67;83.67;49.00
55076;PMS7003;40971;44.702;11.030;2024-01-15T21:42:33;99.67;80.33;52.00
55076;PMS7003;40971;44.702;11.030;2024-01-15T21:52:38;92.56;74.78;46.89
55076;PMS7003;40971;44.702;11.030;2024-01-15T22:02:41;99.67;79.67;50.67
55076;PMS7003;40971;44.702;11.030;2024-01-15T22:12:47;101.11;82.44;48.33
55076;PMS7003;40971;44.702;11.030;2024-01-15T22:22:52;98.17;78.83;50.00
55076;PMS7003;40971;44.702;11.030;2024-01-15T22:32:57;103.22;85.33;50.00
55076;PMS7003;40971;44.702;11.030;2024-01-15T22:43:01;99.75;79.63;49.75
55076;PMS7003;40971;44.702;11.030;2024-01-15T22:53:06;105.78;85.78;51.11
55076;PMS7003;40971;44.702;11.030;2024-01-15T23:03:08;108.00;90.00;52.00
55076;PMS7003;40971;44.702;11.030;2024-01-15T23:13:10;107.33;90.00;54.00
55076;PMS7003;40971;44.702;11.030;2024-01-15T23:23:15;105.25;85.88;51.38
55076;PMS7003;40971;44.702;11.030;2024-01-15T23:33:19;103.22;82.44;50.11
55076;PMS7003;40971;44.702;11.030;2024-01-15T23:43:21;105.67;86.33;52.00
55076;PMS7003;40971;44.702;11.030;2024-01-15T23:53:26;102.44;81.33;51.00
